^^
Your Local Weather - Clay, NY Station Historical Data
Daily Summary for January 21, 2018 Units:  English    Metric   Both
« Previous Day
Next Day »
Daily Weekly Monthly Yearly Custom
  High: Low: Average:
Temperature: 42.7 °F 26.3 °F 35.1 °F
Dew Point: 31.7 °F 22.8 °F 28.6 °F
Humidity: 89% 64% 77%
Wind Speed: 3.0mph 0.0mph 0.6mph
Wind Gust: 6.0mph - -
Wind- - ESE
Pressure: 30.13 in 30.01 in -
Precipitation: 0.04 in    
Historical Graphs
 
 
Tabular Data for January 21, 2018
Time Temperature Dew Point Pressure Wind Wind Speed Wind Gust Humidity Rainfall Rate (Hourly) solar
00:05 33.4 °F 27.0 °F 30.01 in WSW 2.0 mph 6.0 mph 77% 0.00 in 0 W/m2
00:12 33.5 °F 27.1 °F 30.01 in SW 2.0 mph 2.0 mph 77% 0.00 in 0 W/m2
00:18 33.5 °F 27.1 °F 30.02 in SW 1.0 mph 2.0 mph 77% 0.00 in 0 W/m2
00:24 33.4 °F 27.0 °F 30.02 in SW 1.0 mph 2.0 mph 77% 0.00 in 0 W/m2
00:30 33.4 °F 27.0 °F 30.02 in SW 1.0 mph 1.0 mph 77% 0.00 in 0 W/m2
00:35 33.4 °F 27.0 °F 30.02 in WSW 1.0 mph 2.0 mph 77% 0.00 in 0 W/m2
00:42 33.2 °F 26.8 °F 30.02 in Calm   2.0 mph 77% 0.00 in 0 W/m2
00:48 33.1 °F 26.7 °F 30.02 in WSW 1.0 mph 2.0 mph 77% 0.00 in 0 W/m2
00:53 33.0 °F 26.6 °F 30.03 in WSW 1.0 mph 2.0 mph 77% 0.00 in 0 W/m2
00:59 32.7 °F 26.3 °F 30.03 in Calm     77% 0.00 in 0 W/m2
01:06 32.3 °F 25.9 °F 30.03 in Calm     77% 0.00 in 0 W/m2
01:12 31.9 °F 25.8 °F 30.03 in Calm     78% 0.00 in 0 W/m2
01:18 31.5 °F 25.4 °F 30.03 in Calm     78% 0.00 in 0 W/m2
01:30 30.0 °F 24.0 °F 30.03 in Calm     78% 0.00 in 0 W/m2
01:36 29.3 °F 23.6 °F 30.03 in Calm     79% 0.00 in 0 W/m2
01:48 28.6 °F 23.5 °F 30.04 in Calm     81% 0.00 in 0 W/m2
02:00 28.0 °F 23.2 °F 30.04 in Calm     82% 0.00 in 0 W/m2
02:06 27.8 °F 23.3 °F 30.04 in Calm     83% 0.00 in 0 W/m2
02:12 27.5 °F 23.3 °F 30.04 in Calm     84% 0.00 in 0 W/m2
02:18 27.5 °F 23.3 °F 30.05 in Calm     84% 0.00 in 0 W/m2
02:24 27.4 °F 23.5 °F 30.05 in Calm     85% 0.00 in 0 W/m2
02:30 27.4 °F 23.5 °F 30.05 in Calm     85% 0.00 in 0 W/m2
02:42 27.6 °F 24.0 °F 30.05 in Calm     86% 0.00 in 0 W/m2
02:48 27.9 °F 24.3 °F 30.05 in Calm     86% 0.00 in 0 W/m2
02:54 28.3 °F 24.6 °F 30.05 in Calm     86% 0.00 in 0 W/m2
03:00 28.7 °F 25.3 °F 30.05 in Calm     87% 0.00 in 0 W/m2
03:06 28.8 °F 25.1 °F 30.05 in Calm     86% 0.00 in 0 W/m2
03:12 28.7 °F 25.0 °F 30.05 in Calm     86% 0.00 in 0 W/m2
03:18 28.6 °F 24.9 °F 30.05 in Calm   1.0 mph 86% 0.00 in 0 W/m2
03:24 28.7 °F 25.0 °F 30.05 in Calm     86% 0.00 in 0 W/m2
03:30 29.2 °F 25.8 °F 30.06 in Calm   2.0 mph 87% 0.00 in 0 W/m2
03:42 30.7 °F 27.0 °F 30.06 in Calm   2.0 mph 86% 0.00 in 0 W/m2
03:48 31.1 °F 27.1 °F 30.06 in Calm   2.0 mph 85% 0.00 in 0 W/m2
03:54 31.5 °F 27.5 °F 30.05 in Calm   1.0 mph 85% 0.00 in 0 W/m2
04:00 31.9 °F 27.6 °F 30.06 in WSW 1.0 mph 1.0 mph 84% 0.00 in 0 W/m2
04:06 32.2 °F 27.6 °F 30.06 in Calm   1.0 mph 83% 0.00 in 0 W/m2
04:12 32.4 °F 27.5 °F 30.06 in Calm     82% 0.00 in 0 W/m2
04:18 32.6 °F 27.7 °F 30.06 in Calm   1.0 mph 82% 0.00 in 0 W/m2
04:24 32.8 °F 27.6 °F 30.07 in WSW 1.0 mph 2.0 mph 81% 0.00 in 0 W/m2
04:30 33.0 °F 27.8 °F 30.06 in WSW 1.0 mph 2.0 mph 81% 0.00 in 0 W/m2
04:36 33.1 °F 27.6 °F 30.06 in WSW 1.0 mph 3.0 mph 80% 0.00 in 0 W/m2
04:42 33.3 °F 27.8 °F 30.06 in WSW 2.0 mph 2.0 mph 80% 0.00 in 0 W/m2
04:48 33.4 °F 27.9 °F 30.06 in WSW 1.0 mph 2.0 mph 80% 0.00 in 0 W/m2
04:54 33.5 °F 27.7 °F 30.06 in WSW 1.0 mph 2.0 mph 79% 0.00 in 0 W/m2
05:00 33.4 °F 27.6 °F 30.06 in Calm     79% 0.00 in 0 W/m2
05:06 33.4 °F 27.6 °F 30.07 in Calm   1.0 mph 79% 0.00 in 0 W/m2
05:12 33.3 °F 27.8 °F 30.07 in Calm   1.0 mph 80% 0.00 in 0 W/m2
05:18 33.2 °F 27.7 °F 30.07 in Calm   2.0 mph 80% 0.00 in 0 W/m2
05:24 33.1 °F 27.6 °F 30.07 in Calm   1.0 mph 80% 0.00 in 0 W/m2
05:30 32.9 °F 27.4 °F 30.07 in Calm     80% 0.00 in 0 W/m2
05:36 32.8 °F 27.3 °F 30.07 in Calm     80% 0.00 in 0 W/m2
05:42 32.7 °F 27.2 °F 30.08 in Calm     80% 0.00 in 0 W/m2
05:48 32.6 °F 27.1 °F 30.08 in Calm     80% 0.00 in 0 W/m2
05:54 32.5 °F 27.0 °F 30.08 in Calm     80% 0.00 in 0 W/m2
06:00 32.3 °F 27.1 °F 30.09 in Calm     81% 0.00 in 0 W/m2
06:06 32.0 °F 26.8 °F 30.10 in Calm     81% 0.00 in 0 W/m2
06:12 31.7 °F 26.5 °F 30.10 in Calm     81% 0.00 in 0 W/m2
06:18 31.5 °F 26.3 °F 30.10 in Calm     81% 0.00 in 0 W/m2
06:24 31.3 °F 26.4 °F 30.10 in Calm     82% 0.00 in 0 W/m2
06:30 31.1 °F 26.2 °F 30.10 in Calm     82% 0.00 in 0 W/m2
06:36 30.8 °F 26.0 °F 30.10 in Calm     82% 0.00 in 0 W/m2
06:42 30.4 °F 25.6 °F 30.10 in Calm     82% 0.00 in 0 W/m2
06:50 29.9 °F 25.4 °F 30.10 in Calm     83% 0.00 in 0 W/m2
06:56 29.4 °F 24.9 °F 30.10 in Calm     83% 0.00 in 0 W/m2
07:02 28.7 °F 24.2 °F 30.10 in Calm     83% 0.00 in 0 W/m2
07:08 28.4 °F 24.2 °F 30.10 in Calm     84% 0.00 in 0 W/m2
07:14 28.1 °F 23.9 °F 30.10 in Calm     84% 0.00 in 0 W/m2
07:20 27.7 °F 23.5 °F 30.10 in Calm     84% 0.00 in 0 W/m2
07:26 27.3 °F 23.4 °F 30.10 in Calm     85% 0.00 in 0 W/m2
07:32 27.0 °F 23.1 °F 30.10 in Calm     85% 0.00 in 0 W/m2
07:38 26.8 °F 22.9 °F 30.10 in Calm     85% 0.00 in 5 W/m2
07:44 26.6 °F 23.0 °F 30.10 in Calm     86% 0.00 in 7 W/m2
07:50 26.5 °F 22.9 °F 30.11 in Calm     86% 0.00 in 11 W/m2
07:56 26.4 °F 22.8 °F 30.11 in Calm     86% 0.00 in 21 W/m2
08:02 26.3 °F 23.0 °F 30.11 in Calm     87% 0.00 in 35 W/m2
08:08 26.3 °F 23.0 °F 30.11 in Calm     87% 0.00 in 37 W/m2
08:14 26.5 °F 23.2 °F 30.11 in Calm     87% 0.00 in 37 W/m2
08:20 26.6 °F 23.3 °F 30.11 in Calm     87% 0.00 in 46 W/m2
08:26 26.9 °F 23.8 °F 30.12 in Calm     88% 0.00 in 42 W/m2
08:32 27.2 °F 24.1 °F 30.13 in Calm     88% 0.00 in 91 W/m2
08:38 27.5 °F 24.4 °F 30.13 in Calm     88% 0.00 in 125 W/m2
08:44 28.1 °F 25.3 °F 30.13 in Calm     89% 0.00 in 132 W/m2
08:50 28.6 °F 25.5 °F 30.13 in Calm     88% 0.00 in 148 W/m2
08:56 29.3 °F 26.5 °F 30.13 in Calm     89% 0.00 in 163 W/m2
09:02 29.9 °F 26.8 °F 30.13 in Calm     88% 0.00 in 183 W/m2
09:08 30.6 °F 27.5 °F 30.13 in Calm     88% 0.00 in 202 W/m2
09:14 31.3 °F 27.3 °F 30.13 in Calm     85% 0.00 in 216 W/m2
09:20 32.0 °F 27.4 °F 30.13 in Calm     83% 0.00 in 236 W/m2
09:26 33.0 °F 28.1 °F 30.13 in Calm     82% 0.00 in 255 W/m2
09:32 35.2 °F 29.3 °F 30.13 in Calm     79% 0.00 in 271 W/m2
09:38 36.2 °F 29.4 °F 30.13 in Calm     76% 0.00 in 281 W/m2
09:44 36.8 °F 29.6 °F 30.13 in Calm     75% 0.00 in 272 W/m2
09:50 37.1 °F 29.9 °F 30.13 in Calm   1.0 mph 75% 0.00 in 267 W/m2
09:56 37.6 °F 29.7 °F 30.13 in Calm   1.0 mph 73% 0.00 in 271 W/m2
10:02 38.2 °F 30.3 °F 30.13 in Calm     73% 0.00 in 313 W/m2
10:08 38.9 °F 30.6 °F 30.13 in Calm   1.0 mph 72% 0.00 in 338 W/m2
10:14 39.3 °F 30.3 °F 30.13 in WSW 1.0 mph 1.0 mph 70% 0.00 in 352 W/m2
10:20 39.7 °F 30.4 °F 30.13 in WSW 1.0 mph 1.0 mph 69% 0.00 in 332 W/m2
10:26 39.7 °F 30.4 °F 30.13 in WSW 1.0 mph 3.0 mph 69% 0.00 in 348 W/m2
10:32 39.7 °F 30.4 °F 30.13 in West 2.0 mph 2.0 mph 69% 0.00 in 332 W/m2
10:38 39.9 °F 30.2 °F 30.13 in South 1.0 mph 2.0 mph 68% 0.00 in 251 W/m2
10:44 39.8 °F 30.5 °F 30.13 in Calm   1.0 mph 69% 0.00 in 167 W/m2
10:50 39.2 °F 30.2 °F 30.13 in South 1.0 mph 2.0 mph 70% 0.00 in 141 W/m2
10:56 38.9 °F 29.9 °F 30.13 in South 1.0 mph 2.0 mph 70% 0.00 in 127 W/m2
11:03 38.9 °F 30.3 °F 30.13 in Calm   1.0 mph 71% 0.00 in 169 W/m2
11:08 39.1 °F 30.5 °F 30.13 in Calm   1.0 mph 71% 0.00 in 206 W/m2
11:14 39.5 °F 30.5 °F 30.13 in Calm     70% 0.00 in 199 W/m2
11:20 40.1 °F 30.7 °F 30.12 in Calm   1.0 mph 69% 0.00 in 216 W/m2
11:26 40.0 °F 30.6 °F 30.12 in Calm     69% 0.00 in 223 W/m2
11:32 40.1 °F 30.7 °F 30.12 in Calm   1.0 mph 69% 0.00 in 246 W/m2
11:38 40.9 °F 31.1 °F 30.12 in Calm   1.0 mph 68% 0.00 in 278 W/m2
11:44 41.1 °F 31.0 °F 30.11 in Calm   1.0 mph 67% 0.00 in 271 W/m2
11:50 41.0 °F 30.9 °F 30.11 in Calm     67% 0.00 in 255 W/m2
11:56 41.3 °F 30.8 °F 30.11 in Calm     66% 0.00 in 360 W/m2
12:02 40.9 °F 30.4 °F 30.11 in Calm   1.0 mph 66% 0.00 in 285 W/m2
12:08 41.0 °F 30.9 °F 30.11 in Calm   2.0 mph 67% 0.00 in 438 W/m2
12:14 41.6 °F 31.4 °F 30.10 in Calm   1.0 mph 67% 0.00 in 496 W/m2
12:20 42.5 °F 31.2 °F 30.10 in NW 1.0 mph 3.0 mph 64% 0.00 in 454 W/m2
12:26 42.6 °F 31.7 °F 30.10 in SE 1.0 mph 3.0 mph 65% 0.00 in 454 W/m2
12:32 42.1 °F 31.2 °F 30.10 in SE 1.0 mph 3.0 mph 65% 0.00 in 236 W/m2
12:38 41.5 °F 31.0 °F 30.10 in SE 1.0 mph 3.0 mph 66% 0.00 in 248 W/m2
12:44 41.3 °F 30.8 °F 30.10 in SE 1.0 mph 2.0 mph 66% 0.00 in 237 W/m2
12:50 41.6 °F 31.4 °F 30.10 in SE 1.0 mph 1.0 mph 67% 0.00 in 229 W/m2
12:56 42.0 °F 31.5 °F 30.09 in Calm   1.0 mph 66% 0.00 in 211 W/m2
13:02 41.7 °F 31.2 °F 30.09 in SSE 2.0 mph 3.0 mph 66% 0.00 in 223 W/m2
13:08 41.8 °F 31.6 °F 30.09 in West 2.0 mph 3.0 mph 67% 0.00 in 251 W/m2
13:14 41.9 °F 31.4 °F 30.08 in South 1.0 mph 3.0 mph 66% 0.00 in 301 W/m2
13:20 42.1 °F 31.6 °F 30.08 in South 2.0 mph 2.0 mph 66% 0.00 in 283 W/m2
13:26 42.3 °F 31.4 °F 30.08 in South 1.0 mph 2.0 mph 65% 0.00 in 387 W/m2
13:32 42.5 °F 31.2 °F 30.08 in NE 2.0 mph 2.0 mph 64% 0.00 in 367 W/m2
13:38 42.7 °F 31.4 °F 30.08 in NE 2.0 mph 4.0 mph 64% 0.00 in 255 W/m2
13:44 42.4 °F 31.1 °F 30.08 in ENE 2.0 mph 2.0 mph 64% 0.00 in 243 W/m2
13:50 42.0 °F 31.1 °F 30.08 in ESE 1.0 mph 3.0 mph 65% 0.00 in 207 W/m2
13:56 41.7 °F 31.2 °F 30.08 in East 2.0 mph 3.0 mph 66% 0.00 in 183 W/m2
14:02 41.7 °F 31.2 °F 30.08 in East 1.0 mph 3.0 mph 66% 0.00 in 160 W/m2
14:08 41.7 °F 31.2 °F 30.08 in ENE 2.0 mph 3.0 mph 66% 0.00 in 149 W/m2
14:14 41.4 °F 30.9 °F 30.08 in NE 2.0 mph 3.0 mph 66% 0.00 in 125 W/m2
14:20 41.1 °F 31.0 °F 30.08 in ENE 2.0 mph 3.0 mph 67% 0.00 in 125 W/m2
14:26 40.7 °F 30.6 °F 30.08 in ENE 3.0 mph 3.0 mph 67% 0.00 in 118 W/m2
14:32 40.4 °F 30.7 °F 30.08 in NE 3.0 mph 3.0 mph 68% 0.00 in 98 W/m2
14:38 40.2 °F 30.8 °F 30.08 in NE 2.0 mph 4.0 mph 69% 0.00 in 84 W/m2
14:44 40.1 °F 30.7 °F 30.08 in NE 2.0 mph 4.0 mph 69% 0.00 in 79 W/m2
14:50 39.9 °F 30.5 °F 30.08 in NE 2.0 mph 4.0 mph 69% 0.00 in 79 W/m2
14:56 39.8 °F 30.5 °F 30.08 in NE 2.0 mph 4.0 mph 69% 0.00 in 76 W/m2
15:08 39.5 °F 30.5 °F 30.08 in ENE 3.0 mph 4.0 mph 70% 0.00 in 56 W/m2
15:14 39.3 °F 30.3 °F 30.08 in ENE 2.0 mph 3.0 mph 70% 0.00 in 56 W/m2
15:20 39.2 °F 30.6 °F 30.08 in ENE 2.0 mph 2.0 mph 71% 0.00 in 58 W/m2
15:26 39.2 °F 30.6 °F 30.08 in ENE 1.0 mph 2.0 mph 71% 0.00 in 49 W/m2
15:32 39.1 °F 30.5 °F 30.08 in ENE 1.0 mph 3.0 mph 71% 0.00 in 44 W/m2
15:38 39.1 °F 30.5 °F 30.08 in NE 2.0 mph 3.0 mph 71% 0.00 in 40 W/m2
15:44 39.1 °F 30.5 °F 30.08 in ENE 2.0 mph 3.0 mph 71% 0.00 in 42 W/m2
15:50 39.0 °F 30.4 °F 30.08 in ENE 2.0 mph 2.0 mph 71% 0.00 in 39 W/m2
16:02 38.9 °F 30.3 °F 30.08 in ENE 1.0 mph 3.0 mph 71% 0.00 in 39 W/m2
16:08 38.8 °F 30.5 °F 30.09 in ENE 1.0 mph 3.0 mph 72% 0.00 in 33 W/m2
16:14 38.8 °F 30.5 °F 30.09 in ENE 2.0 mph 3.0 mph 72% 0.00 in 32 W/m2
16:20 38.8 °F 30.5 °F 30.09 in ENE 2.0 mph 2.0 mph 72% 0.00 in 26 W/m2
16:26 38.6 °F 30.4 °F 30.09 in East 2.0 mph 3.0 mph 72% 0.00 in 21 W/m2
16:32 38.5 °F 30.3 °F 30.09 in ENE 2.0 mph 2.0 mph 72% 0.00 in 14 W/m2
16:38 38.5 °F 30.3 °F 30.09 in ENE 2.0 mph 3.0 mph 72% 0.00 in 11 W/m2
16:44 38.5 °F 30.3 °F 30.09 in ENE 2.0 mph 5.0 mph 72% 0.00 in 9 W/m2
16:50 38.3 °F 30.4 °F 30.09 in ENE 2.0 mph 2.0 mph 73% 0.00 in 5 W/m2
16:56 38.3 °F 30.4 °F 30.09 in ENE 1.0 mph 2.0 mph 73% 0.00 in 0 W/m2
17:02 38.2 °F 30.3 °F 30.09 in ENE 1.0 mph 3.0 mph 73% 0.00 in 0 W/m2
17:08 38.1 °F 30.2 °F 30.09 in East 1.0 mph 3.0 mph 73% 0.00 in 0 W/m2
17:14 38.1 °F 30.2 °F 30.09 in East 1.0 mph 2.0 mph 73% 0.00 in 0 W/m2
17:20 38.0 °F 30.1 °F 30.08 in East 1.0 mph 1.0 mph 73% 0.00 in 0 W/m2
17:26 37.9 °F 30.4 °F 30.08 in Calm   2.0 mph 74% 0.00 in 0 W/m2
17:38 37.7 °F 30.2 °F 30.08 in Calm   1.0 mph 74% 0.00 in 0 W/m2
17:44 37.7 °F 30.5 °F 30.08 in East 1.0 mph 2.0 mph 75% 0.00 in 0 W/m2
17:50 37.7 °F 30.2 °F 30.08 in East 1.0 mph 1.0 mph 74% 0.00 in 0 W/m2
17:56 37.6 °F 30.4 °F 30.08 in East 1.0 mph 3.0 mph 75% 0.00 in 0 W/m2
18:02 37.6 °F 30.4 °F 30.09 in East 1.0 mph 1.0 mph 75% 0.00 in 0 W/m2
18:08 37.8 °F 30.6 °F 30.09 in East 1.0 mph 3.0 mph 75% 0.00 in 0 W/m2
18:14 37.8 °F 30.6 °F 30.09 in East 1.0 mph 1.0 mph 75% 0.00 in 0 W/m2
18:20 37.6 °F 30.4 °F 30.09 in ENE 1.0 mph 1.0 mph 75% 0.00 in 0 W/m2
18:32 37.3 °F 30.1 °F 30.09 in Calm   2.0 mph 75% 0.00 in 0 W/m2
18:38 37.2 °F 30.0 °F 30.09 in Calm   2.0 mph 75% 0.00 in 0 W/m2
18:44 37.3 °F 30.4 °F 30.09 in Calm     76% 0.00 in 0 W/m2
18:50 37.3 °F 30.4 °F 30.09 in Calm     76% 0.00 in 0 W/m2
18:56 37.3 °F 30.4 °F 30.09 in Calm   1.0 mph 76% 0.00 in 0 W/m2
19:03 37.0 °F 30.1 °F 30.09 in Calm     76% 0.00 in 0 W/m2
19:08 36.8 °F 30.3 °F 30.09 in ENE 1.0 mph 2.0 mph 77% 0.00 in 0 W/m2
19:14 36.6 °F 30.1 °F 30.09 in ENE 1.0 mph 1.0 mph 77% 0.00 in 0 W/m2
19:20 36.6 °F 30.1 °F 30.09 in ENE 1.0 mph 1.0 mph 77% 0.00 in 0 W/m2
19:26 36.4 °F 30.2 °F 30.09 in Calm   2.0 mph 78% 0.00 in 0 W/m2
19:32 36.2 °F 30.0 °F 30.09 in ENE 1.0 mph 1.0 mph 78% 0.00 in 0 W/m2
19:38 36.0 °F 30.1 °F 30.09 in Calm   2.0 mph 79% 0.00 in 0 W/m2
19:44 36.1 °F 30.2 °F 30.09 in ENE 1.0 mph 1.0 mph 79% 0.00 in 0 W/m2
19:50 35.9 °F 30.0 °F 30.09 in Calm     79% 0.00 in 0 W/m2
19:56 35.8 °F 29.9 °F 30.08 in Calm     79% 0.00 in 0 W/m2
20:02 35.8 °F 30.2 °F 30.08 in Calm     80% 0.00 in 0 W/m2
20:08 35.9 °F 30.3 °F 30.09 in Calm     80% 0.00 in 0 W/m2
20:14 36.2 °F 30.6 °F 30.08 in ENE 1.0 mph 2.0 mph 80% 0.00 in 0 W/m2
20:20 36.0 °F 30.1 °F 30.08 in ENE 1.0 mph 1.0 mph 79% 0.00 in 0 W/m2
20:26 35.9 °F 30.3 °F 30.09 in ENE 1.0 mph 1.0 mph 80% 0.00 in 0 W/m2
20:32 36.0 °F 30.4 °F 30.08 in ENE 1.0 mph 1.0 mph 80% 0.00 in 0 W/m2
20:38 36.0 °F 30.4 °F 30.09 in Calm   1.0 mph 80% 0.00 in 0 W/m2
20:44 35.8 °F 30.2 °F 30.08 in Calm     80% 0.00 in 0 W/m2
20:50 35.7 °F 30.1 °F 30.08 in Calm   1.0 mph 80% 0.00 in 0 W/m2
20:56 35.7 °F 30.1 °F 30.08 in Calm   1.0 mph 80% 0.00 in 0 W/m2
21:02 35.5 °F 30.2 °F 30.08 in Calm   1.0 mph 81% 0.00 in 0 W/m2
21:08 35.3 °F 30.1 °F 30.08 in Calm   1.0 mph 81% 0.00 in 0 W/m2
21:14 35.3 °F 30.1 °F 30.08 in Calm     81% 0.00 in 0 W/m2
21:20 35.4 °F 30.1 °F 30.08 in Calm   2.0 mph 81% 0.00 in 0 W/m2
21:26 35.3 °F 30.1 °F 30.08 in Calm   2.0 mph 81% 0.00 in 0 W/m2
21:32 35.4 °F 30.1 °F 30.08 in ENE 1.0 mph 1.0 mph 81% 0.00 in 0 W/m2
21:38 35.3 °F 30.1 °F 30.08 in ENE 1.0 mph 2.0 mph 81% 0.00 in 0 W/m2
21:44 35.2 °F 30.3 °F 30.08 in Calm     82% 0.00 in 0 W/m2
21:56 34.9 °F 30.0 °F 30.08 in Calm     82% 0.00 in 0 W/m2
22:08 35.0 °F 30.4 °F 30.08 in ENE 1.0 mph 1.0 mph 83% 0.00 in 0 W/m2
22:14 35.2 °F 30.6 °F 30.08 in Calm   2.0 mph 83% 0.00 in 0 W/m2
22:20 35.1 °F 30.5 °F 30.08 in ENE 1.0 mph 1.0 mph 83% 0.00 in 0 W/m2
22:26 34.9 °F 30.6 °F 30.08 in Calm   1.0 mph 84% 0.00 in 0 W/m2
22:38 35.1 °F 30.8 °F 30.08 in ENE 1.0 mph 2.0 mph 84% 0.00 in 0 W/m2
22:44 35.1 °F 30.8 °F 30.08 in ENE 1.0 mph 1.0 mph 84% 0.00 in 0 W/m2
22:50 35.2 °F 30.9 °F 30.08 in ENE 1.0 mph 1.0 mph 84% 0.00 in 0 W/m2
22:56 35.1 °F 30.8 °F 30.08 in ENE 1.0 mph 1.0 mph 84% 0.00 in 0 W/m2
23:08 35.2 °F 30.9 °F 30.08 in ENE 1.0 mph 2.0 mph 84% 0.00 in 0 W/m2
23:14 35.3 °F 30.9 °F 30.08 in East 1.0 mph 3.0 mph 84% 0.00 in 0 W/m2
23:20 35.4 °F 31.0 °F 30.08 in East 1.0 mph 2.0 mph 84% 0.00 in 0 W/m2
23:32 35.4 °F 31.0 °F 30.08 in East 1.0 mph 1.0 mph 84% 0.00 in 0 W/m2
23:40 35.0 °F 30.7 °F 30.08 in East 1.0 mph 2.0 mph 84% 0.00 in 0 W/m2
23:46 34.7 °F 30.7 °F 30.08 in East 1.0 mph 2.0 mph 85% 0.00 in 0 W/m2
23:52 34.6 °F 30.8 °F 30.08 in East 1.0 mph 2.0 mph 86% 0.00 in 0 W/m2
23:58 34.5 °F 30.7 °F 30.07 in East 1.0 mph 2.0 mph 86% 0.00 in 0 W/m2
Country Meadow, Clay, NY, USA
Compliments of Weather Underground - 2 mb